Time,TemperatureF,DewpointF,PressureIn,WindDirection,WindDirectionDegrees,WindSpeedMPH,WindSpeedGustMPH,Humidity,HourlyPrecipIn,Conditions,Clouds,dailyrainin,SolarRadiationWatts/m^2,SoftwareType,DateUTC
2013-07-02 00:11:00,84.0,54.0,-100.00,NNW,344,2.0,6.0,36,0.00,,,0.00,0.000000,,2013-07-02 06:11:00,
2013-07-02 00:23:00,84.0,54.0,-100.00,NNW,344,2.0,6.0,36,0.00,,,0.00,0.000000,,2013-07-02 06:23:00,
2013-07-02 00:33:00,84.0,54.0,-100.00,NNW,344,2.0,6.0,36,0.00,,,0.00,0.000000,,2013-07-02 06:33:00,
2013-07-02 00:42:00,77.0,56.0,-100.00,SE,141,6.0,18.0,49,0.00,,,0.00,0.000000,,2013-07-02 06:42:00,
2013-07-02 01:11:00,77.0,56.0,-100.00,SE,141,6.0,18.0,49,0.00,,,0.00,0.000000,,2013-07-02 07:11:00,
2013-07-02 01:22:00,77.0,56.0,-100.00,SE,141,6.0,18.0,49,0.00,,,0.00,0.000000,,2013-07-02 07:22:00,
2013-07-02 01:33:00,77.0,56.0,-100.00,SE,141,6.0,18.0,49,0.00,,,0.00,0.000000,,2013-07-02 07:33:00,
2013-07-02 02:42:00,80.0,54.0,-100.00,NE,52,6.0,8.0,41,0.00,,,0.00,0.000000,,2013-07-02 08:42:00,
2013-07-02 03:11:00,80.0,54.0,-100.00,NE,52,6.0,8.0,41,0.00,,,0.00,0.000000,,2013-07-02 09:11:00,
2013-07-02 03:22:00,80.0,54.0,-100.00,NE,52,6.0,8.0,41,0.00,,,0.00,0.000000,,2013-07-02 09:22:00,
2013-07-02 03:33:00,80.0,54.0,-100.00,NE,52,6.0,8.0,41,0.00,,,0.00,0.000000,,2013-07-02 09:33:00,
2013-07-02 04:01:00,81.0,54.0,-100.00,NNE,25,4.0,9.0,39,0.00,,,0.00,0.000000,,2013-07-02 10:01:00,
2013-07-02 04:42:00,76.0,55.0,-100.00,SW,229,2.0,8.0,48,-99.99,,,-99.99,0.000000,,2013-07-02 10:42:00,
2013-07-02 05:01:00,76.0,55.0,-100.00,SW,229,2.0,8.0,48,-99.99,,,-99.99,0.000000,,2013-07-02 11:01:00,
2013-07-02 05:11:00,76.0,55.0,-100.00,SW,229,2.0,8.0,48,-99.99,,,-99.99,0.000000,,2013-07-02 11:11:00,
2013-07-02 05:22:00,76.0,55.0,-100.00,SW,229,2.0,8.0,48,-99.99,,,-99.99,0.000000,,2013-07-02 11:22:00,
2013-07-02 05:33:00,76.0,55.0,-100.00,SW,229,2.0,8.0,48,-99.99,,,-99.99,0.000000,,2013-07-02 11:33:00,
2013-07-02 06:42:00,77.0,52.0,-100.00,NW,316,2.0,11.0,42,-99.99,,,0.00,11.000000,,2013-07-02 12:42:00,
2013-07-02 07:11:00,77.0,52.0,-100.00,NW,316,2.0,11.0,42,-99.99,,,0.00,11.000000,,2013-07-02 13:11:00,
2013-07-02 07:22:00,77.0,52.0,-100.00,NW,316,2.0,11.0,42,-99.99,,,0.00,11.000000,,2013-07-02 13:22:00,
2013-07-02 07:34:00,77.0,52.0,-100.00,NW,316,2.0,11.0,42,-99.99,,,0.00,11.000000,,2013-07-02 13:34:00,
2013-07-02 07:42:00,78.0,56.0,-100.00,ENE,64,1.0,6.0,47,-99.99,,,-99.99,77.000000,,2013-07-02 13:42:00,
2013-07-02 08:11:00,78.0,56.0,-100.00,ENE,64,1.0,6.0,47,-99.99,,,-99.99,77.000000,,2013-07-02 14:11:00,
2013-07-02 08:22:00,78.0,56.0,-100.00,ENE,64,1.0,6.0,47,-99.99,,,-99.99,77.000000,,2013-07-02 14:22:00,
2013-07-02 08:33:00,78.0,56.0,-100.00,ENE,64,1.0,6.0,47,-99.99,,,-99.99,77.000000,,2013-07-02 14:33:00,
2013-07-02 08:42:00,82.0,57.0,-100.00,NW,322,2.0,8.0,42,0.00,,,0.00,219.000000,,2013-07-02 14:42:00,
2013-07-02 09:33:00,82.0,57.0,-100.00,NW,322,2.0,8.0,42,0.00,,,0.00,219.000000,,2013-07-02 15:33:00,
2013-07-02 09:42:00,86.0,57.0,-100.00,NNW,339,4.0,7.0,37,0.00,,,0.00,395.000000,,2013-07-02 15:42:00,
2013-07-02 10:12:00,86.0,57.0,-100.00,NNW,339,4.0,7.0,37,0.00,,,0.00,395.000000,,2013-07-02 16:12:00,
2013-07-02 10:21:00,86.0,57.0,-100.00,NNW,339,4.0,7.0,37,0.00,,,0.00,395.000000,,2013-07-02 16:21:00,
2013-07-02 10:33:00,86.0,57.0,-100.00,NNW,339,4.0,7.0,37,0.00,,,0.00,395.000000,,2013-07-02 16:33:00,
2013-07-02 10:42:00,92.0,60.0,-100.00,ESE,111,3.0,9.0,34,0.00,,,0.00,564.000000,,2013-07-02 16:42:00,
2013-07-02 11:22:00,92.0,60.0,-100.00,ESE,111,3.0,9.0,34,0.00,,,0.00,564.000000,,2013-07-02 17:22:00,
2013-07-02 11:33:00,92.0,60.0,-100.00,ESE,111,3.0,9.0,34,0.00,,,0.00,564.000000,,2013-07-02 17:33:00,
2013-07-02 11:42:00,95.0,59.0,-100.00,WNW,303,4.0,11.0,30,0.00,,,0.00,712.000000,,2013-07-02 17:42:00,
2013-07-02 12:12:00,95.0,59.0,-100.00,WNW,303,4.0,11.0,30,0.00,,,0.00,712.000000,,2013-07-02 18:12:00,
2013-07-02 12:23:00,95.0,59.0,-100.00,WNW,303,4.0,11.0,30,0.00,,,0.00,712.000000,,2013-07-02 18:23:00,
2013-07-02 12:34:00,95.0,59.0,-100.00,WNW,303,4.0,11.0,30,0.00,,,0.00,712.000000,,2013-07-02 18:34:00,
2013-07-02 12:42:00,97.0,55.0,-100.00,WNW,302,5.0,13.0,25,0.00,,,0.00,820.000000,,2013-07-02 18:42:00,
2013-07-02 13:01:00,97.0,55.0,-100.00,WNW,302,5.0,13.0,25,0.00,,,0.00,820.000000,,2013-07-02 19:01:00,
2013-07-02 13:11:00,97.0,55.0,-100.00,WNW,302,5.0,13.0,25,0.00,,,0.00,820.000000,,2013-07-02 19:11:00,
2013-07-02 13:22:00,97.0,55.0,-100.00,WNW,302,5.0,13.0,25,0.00,,,0.00,820.000000,,2013-07-02 19:22:00,
2013-07-02 13:34:00,97.0,55.0,-100.00,WNW,302,5.0,13.0,25,0.00,,,0.00,820.000000,,2013-07-02 19:34:00,
2013-07-02 13:42:00,100.0,54.0,-100.00,NE,55,3.0,19.0,22,0.00,,,0.00,883.000000,,2013-07-02 19:42:00,
2013-07-02 14:11:00,100.0,54.0,-100.00,NE,55,3.0,19.0,22,0.00,,,0.00,883.000000,,2013-07-02 20:11:00,
2013-07-02 14:22:00,100.0,54.0,-100.00,NE,55,3.0,19.0,22,0.00,,,0.00,883.000000,,2013-07-02 20:22:00,
2013-07-02 14:33:00,100.0,54.0,-100.00,NE,55,3.0,19.0,22,0.00,,,0.00,883.000000,,2013-07-02 20:33:00,
2013-07-02 14:42:00,101.0,50.0,-100.00,SE,127,7.0,12.0,18,0.00,,,0.00,885.000000,,2013-07-02 20:42:00,
2013-07-02 15:11:00,101.0,50.0,-100.00,SE,127,7.0,12.0,18,0.00,,,0.00,885.000000,,2013-07-02 21:11:00,
2013-07-02 15:22:00,101.0,50.0,-100.00,SE,127,7.0,12.0,18,0.00,,,0.00,885.000000,,2013-07-02 21:22:00,
2013-07-02 15:33:00,101.0,50.0,-100.00,SE,127,7.0,12.0,18,0.00,,,0.00,885.000000,,2013-07-02 21:33:00,
2013-07-02 15:42:00,100.0,52.0,-100.00,SSE,154,7.0,14.0,20,0.00,,,0.00,851.000000,,2013-07-02 21:42:00,
2013-07-02 16:11:00,100.0,52.0,-100.00,SSE,154,7.0,14.0,20,0.00,,,0.00,851.000000,,2013-07-02 22:11:00,
2013-07-02 16:22:00,100.0,52.0,-100.00,SSE,154,7.0,14.0,20,0.00,,,0.00,851.000000,,2013-07-02 22:22:00,
2013-07-02 16:33:00,100.0,52.0,-100.00,SSE,154,7.0,14.0,20,0.00,,,0.00,851.000000,,2013-07-02 22:33:00,
2013-07-02 16:42:00,103.0,53.0,-100.00,WSW,239,5.0,14.0,19,0.00,,,0.00,793.000000,,2013-07-02 22:42:00,
2013-07-02 17:01:00,103.0,53.0,-100.00,WSW,239,5.0,14.0,19,0.00,,,0.00,793.000000,,2013-07-02 23:01:00,
2013-07-02 17:11:00,103.0,53.0,-100.00,WSW,239,5.0,14.0,19,0.00,,,0.00,793.000000,,2013-07-02 23:11:00,
2013-07-02 17:22:00,103.0,53.0,-100.00,WSW,239,5.0,14.0,19,0.00,,,0.00,793.000000,,2013-07-02 23:22:00,
2013-07-02 17:33:00,103.0,53.0,-100.00,WSW,239,5.0,14.0,19,0.00,,,0.00,793.000000,,2013-07-02 23:33:00,
2013-07-02 17:42:00,99.0,53.0,-100.00,NNW,337,9.0,22.0,22,0.00,,,0.00,631.000000,,2013-07-02 23:42:00,
2013-07-02 18:01:00,99.0,53.0,-100.00,NNW,337,9.0,22.0,22,0.00,,,0.00,631.000000,,2013-07-03 00:01:00,
2013-07-02 18:11:00,99.0,53.0,-100.00,NNW,337,9.0,22.0,22,0.00,,,0.00,631.000000,,2013-07-03 00:11:00,
2013-07-02 18:33:00,99.0,53.0,-100.00,NNW,337,9.0,22.0,22,0.00,,,0.00,631.000000,,2013-07-03 00:33:00,
2013-07-02 18:42:00,95.0,59.0,-100.00,NNW,343,4.0,25.0,30,0.00,,,0.00,403.000000,,2013-07-03 00:42:00,
2013-07-02 19:11:00,95.0,59.0,-100.00,NNW,343,4.0,25.0,30,0.00,,,0.00,403.000000,,2013-07-03 01:11:00,
2013-07-02 19:22:00,95.0,59.0,-100.00,NNW,343,4.0,25.0,30,0.00,,,0.00,403.000000,,2013-07-03 01:22:00,
2013-07-02 19:33:00,95.0,59.0,-100.00,NNW,343,4.0,25.0,30,0.00,,,0.00,403.000000,,2013-07-03 01:33:00,
2013-07-02 19:42:00,89.0,61.0,-100.00,NE,41,3.0,12.0,39,0.00,,,0.00,139.000000,,2013-07-03 01:42:00,
2013-07-02 20:12:00,89.0,61.0,-100.00,NE,41,3.0,12.0,39,0.00,,,0.00,139.000000,,2013-07-03 02:12:00,
2013-07-02 20:35:00,89.0,61.0,-100.00,NE,41,3.0,12.0,39,0.00,,,0.00,139.000000,,2013-07-03 02:35:00,
2013-07-02 20:42:00,87.0,61.0,-100.00,SE,126,3.0,8.0,42,0.00,,,0.00,53.000000,,2013-07-03 02:42:00,
2013-07-02 21:12:00,87.0,61.0,-100.00,SE,126,3.0,8.0,42,0.00,,,0.00,53.000000,,2013-07-03 03:12:00,
2013-07-02 21:25:00,87.0,61.0,-100.00,SE,126,3.0,8.0,42,0.00,,,0.00,53.000000,,2013-07-03 03:25:00,
2013-07-02 21:35:00,87.0,61.0,-100.00,SE,126,3.0,8.0,42,0.00,,,0.00,53.000000,,2013-07-03 03:35:00,
2013-07-02 21:42:00,85.0,61.0,-100.00,NE,55,3.0,12.0,44,0.00,,,0.00,32.000000,,2013-07-03 03:42:00,
2013-07-02 22:11:00,85.0,61.0,-100.00,NE,55,3.0,12.0,44,0.00,,,0.00,32.000000,,2013-07-03 04:11:00,
2013-07-02 22:22:00,85.0,61.0,-100.00,NE,55,3.0,12.0,44,0.00,,,0.00,32.000000,,2013-07-03 04:22:00,
2013-07-02 22:33:00,85.0,61.0,-100.00,NE,55,3.0,12.0,44,0.00,,,0.00,32.000000,,2013-07-03 04:33:00,
2013-07-02 22:42:00,84.0,62.0,-100.00,SE,126,2.0,13.0,48,0.00,,,0.00,1.000000,,2013-07-03 04:42:00,
2013-07-02 23:01:00,84.0,62.0,-100.00,SE,126,2.0,13.0,48,0.00,,,0.00,1.000000,,2013-07-03 05:01:00,
2013-07-02 23:11:00,84.0,62.0,-100.00,SE,126,2.0,13.0,48,0.00,,,0.00,1.000000,,2013-07-03 05:11:00,
2013-07-02 23:23:00,84.0,62.0,-100.00,SE,126,2.0,13.0,48,0.00,,,0.00,1.000000,,2013-07-03 05:23:00,
2013-07-02 23:34:00,84.0,62.0,-100.00,SE,126,2.0,13.0,48,0.00,,,0.00,1.000000,,2013-07-03 05:34:00,
2013-07-02 23:42:00,82.0,61.0,-100.00,ENE,78,8.0,13.0,50,0.00,,,0.00,0.000000,,2013-07-03 05:42:00,